Hilger, MT (59451)

8:40 AM MST on December 18, 2014 (GMT -0700)
3rd Ave S Lewistown | Change Station
CLOSE
Current Station
Personal Weather Station
Location: Lewistown, MT
Elevation: 3927 ft
Nearby Weather Stations
Active Advisory: Freezing Fog Advisory

Elev 3927 ft 47.06 °N, 109.42 °W | Updated 31 minutes ago

Overcast
Overcast
20.9 °F
Feels Like 21 °F
N
0.0
Wind Variable Wind from SE
Gusts 2.0 mph

Today
High -- | Low -- °F
--% Chance of Precip.
Yesterday
High -- | Low -- °F
Precip. -- in
8:00 AM 4:28 PM
Waning Crescent, 14% visible
Pressure 30.00 in
Visibility 10.0 miles
Clouds Overcast 11000 ft
Windchill 21 °F
Dew Point 19 °F
Humidity 92%
Rainfall 0.00 in
Snow Depth Not available.
UV out of 12
Pollen .10 out of 12
Air Quality Not available.
Flu Activity Not available.
METAR KLWT 181454Z AUTO 22008KT 10SM OVC110 M02/M06 A2991 RMK AO2 SLP158 T10221061 51003

More Conditions Fewer Conditions

Pressure 30.00 in
Visibility 10.0 miles
Clouds Overcast 11000 ft
Windchill 21 °F
Dew Point 19 °F
Humidity 92%
Rainfall 0.00 in
Snow Depth Not available.
UV out of 12
Pollen .10 out of 12
Air Quality Not available.
Flu Activity Not available.
METAR KLWT 181454Z AUTO 22008KT 10SM OVC110 M02/M06 A2991 RMK AO2 SLP158 T10221061 51003

More Conditions Fewer Conditions

10-Day Weather Forecast

Almanac

Astronomy

Dec. 18, 2014 Rise Set
Actual Time
Civil Twilight
Nautical Twilight
Astronomical Twilight
Moon
Length of Visible Light
Length of Day
Tomorrow will be .
, % of the Moon is Illuminated

Today's Extremes

State Highs State Lows

Community

WunderPhotos

Upload Photos

1,778,947 photos uploaded!

WunderBlogs® & News

Nearby

Air Quality

  Air Quality AQ Index Pollutant
Not available.

Snow Depth

Station Depth Elevation

Earthquake Activity

City Distance Mag. Time & Date
Minimum magnitude displayed is 2.5.

Coastal Water Temperatures

Place Temperature

Nearby Weather Stations